West Hartland, Connecticut
Current Conditions -  °F | °C
As of 2:51 PM on Saturday 25 Oct 2014 (Local Time) from KBDL Reporting Station
Broken Clouds Broken Clouds  
Wind Chill: 19°   Ceiling: 5500
Heat Index: 19°   Visibility: 10mi
Dew Point:   Wind: 15mph
Humidity: 42%   Direction: 290°WNW
Pressure: 29.65"   Gusts: NA
Location:  42°N, 72.97°W
Report Text: KBDL 251851Z 29013KT 10SM BKN055 BKN250 19/06 A2965 RMK AO2 SLP039 T01890056
Loading
Personal Weather Stations






























Interactive Weather Map
Tropical Storm Tracking
New forecast layout! Learn more

10-Day Weather Forecast

Advertisements
Track Severe Weather on mobile